Time;durP1;ratioP1;P1;durP2;ratioP2;P2;SDS_P1;SDS_P2;PMS_P1;PMS_P2;Temp;Humidity;BMP_temperature;BMP_pressure;BME280_temperature;BME280_humidity;BME280_pressure;Samples;Min_cycle;Max_cycle;Signal;HPM_P1;HPM_P2
2021/12/05 00:17:09;;;;;;;20.00;8.60;;;;;;;0.33;64.59;97761.02;102923;1319;112866;-72
2021/12/05 00:22:28;;;;;;;21.80;9.20;;;;;;;0.38;64.64;97766.34;102892;1318;107894;-69
2021/12/05 00:25:03;;;;;;;24.10;10.80;;;;;;;0.40;64.62;97775.64;102700;1321;99322;-71
2021/12/05 00:27:47;;;;;;;21.10;9.30;;;;;;;0.42;64.65;97779.55;102920;1321;99380;-70
2021/12/05 00:49:32;;;;;;;23.60;8.60;;;;;;;0.35;64.16;97784.11;102730;1318;107890;-70
2021/12/05 00:52:24;;;;;;;21.40;8.40;;;;;;;0.34;64.19;97785.53;102895;1318;99957;-69
2021/12/05 01:16:29;;;;;;;22.60;8.70;;;;;;;0.52;64.01;97779.03;102776;1318;107904;-71
2021/12/05 01:18:58;;;;;;;22.00;8.50;;;;;;;0.52;64.00;97772.73;102770;1321;99467;-71
2021/12/05 01:21:33;;;;;;;21.20;9.40;;;;;;;0.52;63.82;97771.37;102752;1319;99317;-71
2021/12/05 01:24:20;;;;;;;22.60;8.20;;;;;;;0.50;63.49;97771.30;102751;1318;113620;-71
2021/12/05 01:33:03;;;;;;;21.60;8.30;;;;;;;0.42;63.39;97766.61;102752;1320;99983;-70
2021/12/05 01:38:36;;;;;;;19.10;7.40;;;;;;;0.43;63.42;97760.84;102878;1322;112890;-71
2021/12/05 01:40:46;;;;;;;19.60;7.50;;;;;;;0.43;63.39;97755.23;102727;1319;96648;-71
2021/12/05 02:30:13;;;;;;;18.40;7.20;;;;;;;0.62;62.88;97718.32;102904;1318;96558;-71
2021/12/05 02:36:08;;;;;;;20.60;8.20;;;;;;;0.66;62.77;97719.16;102371;1318;99262;-70
2021/12/05 02:41:20;;;;;;;17.80;6.90;;;;;;;0.66;62.58;97714.59;102807;1318;99230;-69
2021/12/05 02:43:59;;;;;;;20.50;6.50;;;;;;;0.66;62.60;97713.71;102833;1318;97321;-70
2021/12/05 02:46:28;;;;;;;17.10;6.80;;;;;;;0.68;62.63;97716.42;102684;1321;112558;-70
2021/12/05 02:49:02;;;;;;;18.40;7.60;;;;;;;0.72;62.89;97721.42;102831;1318;99974;-70
2021/12/05 02:51:33;;;;;;;17.90;6.90;;;;;;;0.75;62.69;97723.39;102817;1319;108722;-69
2021/12/05 02:54:16;;;;;;;17.30;6.80;;;;;;;0.79;62.74;97725.64;102662;1317;151166;-70
2021/12/05 02:56:50;;;;;;;19.30;7.70;;;;;;;0.82;62.69;97720.01;102481;1322;97427;-69
2021/12/05 03:02:16;;;;;;;19.80;7.80;;;;;;;0.81;62.42;97709.80;102788;1318;99253;-70
2021/12/05 03:04:50;;;;;;;18.30;7.70;;;;;;;0.78;62.12;97715.05;102775;1318;107998;-70
2021/12/05 03:07:26;;;;;;;16.70;6.70;;;;;;;0.74;61.96;97714.33;102695;1321;99245;-70
2021/12/05 03:09:57;;;;;;;16.30;6.30;;;;;;;0.70;62.03;97714.55;102805;1318;96583;-70
2021/12/05 03:12:25;;;;;;;18.90;6.30;;;;;;;0.68;62.10;97711.88;102732;1318;112604;-70
2021/12/05 03:15:03;;;;;;;17.90;6.80;;;;;;;0.68;62.08;97716.08;102783;1321;99337;-70
2021/12/05 03:17:31;;;;;;;17.50;6.80;;;;;;;0.68;62.37;97722.68;102650;1324;108011;-70
2021/12/05 03:20:00;;;;;;;16.70;6.40;;;;;;;0.70;62.29;97721.19;102629;1321;97000;-70
2021/12/05 03:22:28;;;;;;;20.40;7.80;;;;;;;0.74;62.23;97721.34;102564;1321;99291;-69
2021/12/05 03:24:55;;;;;;;19.30;6.90;;;;;;;0.74;62.12;97719.95;102608;1321;113818;-70
2021/12/05 03:27:26;;;;;;;16.60;6.50;;;;;;;0.75;62.21;97722.85;102655;1321;99271;-69
2021/12/05 03:29:54;;;;;;;18.00;6.60;;;;;;;0.75;62.02;97723.36;102694;1321;106602;-69
2021/12/05 03:32:22;;;;;;;18.50;7.50;;;;;;;0.76;62.00;97720.76;102711;1321;99361;-70
2021/12/05 03:34:50;;;;;;;17.40;7.00;;;;;;;0.75;62.12;97726.34;102843;1322;99227;-70
2021/12/05 03:37:18;;;;;;;17.70;7.40;;;;;;;0.77;61.98;97723.14;102719;1322;113378;-69
2021/12/05 03:39:46;;;;;;;18.20;6.80;;;;;;;0.77;62.10;97716.65;102721;1321;99243;-71
2021/12/05 03:42:14;;;;;;;19.30;7.10;;;;;;;0.78;62.22;97717.84;102714;1321;107880;-70
2021/12/05 03:44:44;;;;;;;18.90;7.70;;;;;;;0.79;62.15;97714.46;102751;1320;99229;-71
2021/12/05 03:47:16;;;;;;;18.70;7.50;;;;;;;0.80;62.33;97717.55;102569;1324;97348;-70
2021/12/05 03:49:44;;;;;;;16.90;7.00;;;;;;;0.83;62.44;97718.42;102824;1322;112899;-70
2021/12/05 03:52:17;;;;;;;18.40;6.90;;;;;;;0.84;62.29;97717.45;102607;1325;97603;-71
2021/12/05 03:54:48;;;;;;;20.30;8.00;;;;;;;0.88;62.31;97716.56;102630;1321;107494;-71
2021/12/05 03:57:18;;;;;;;19.50;7.20;;;;;;;0.92;62.52;97709.74;102655;1324;99252;-70
2021/12/05 03:59:47;;;;;;;16.70;6.90;;;;;;;0.91;62.62;97704.73;102757;1321;99356;-70
2021/12/05 04:02:15;;;;;;;18.70;7.40;;;;;;;0.92;62.40;97705.55;102718;1319;113055;-72
2021/12/05 04:04:46;;;;;;;19.10;7.50;;;;;;;0.94;62.51;97702.82;102724;1321;99392;-71
2021/12/05 04:07:15;;;;;;;19.80;7.90;;;;;;;0.94;62.58;97708.38;102586;1324;106878;-72
2021/12/05 04:09:49;;;;;;;17.90;6.60;;;;;;;0.95;62.62;97711.48;102692;1321;99324;-71
2021/12/05 04:12:18;;;;;;;18.70;8.00;;;;;;;0.96;62.50;97709.14;102915;1319;99354;-70
2021/12/05 04:14:54;;;;;;;20.40;7.90;;;;;;;0.98;62.71;97707.45;102539;1321;113434;-70
2021/12/05 04:17:26;;;;;;;20.10;7.80;;;;;;;1.00;62.87;97710.00;102777;1321;99245;-71
2021/12/05 04:19:57;;;;;;;18.90;7.40;;;;;;;1.01;62.82;97707.10;102746;1321;107808;-71
2021/12/05 04:22:25;;;;;;;17.90;6.80;;;;;;;1.03;62.84;97712.44;102737;1316;99287;-70
2021/12/05 04:24:52;;;;;;;22.40;8.50;;;;;;;1.03;63.03;97710.65;102849;1321;99251;-71
2021/12/05 04:27:22;;;;;;;22.70;8.60;;;;;;;1.05;62.90;97710.94;102700;1321;112937;-69
2021/12/05 04:29:50;;;;;;;20.30;8.10;;;;;;;1.06;63.02;97712.08;102729;1322;99270;-71
2021/12/05 04:32:18;;;;;;;19.40;7.60;;;;;;;1.08;62.89;97711.66;102757;1321;108524;-71
2021/12/05 04:34:46;;;;;;;20.20;8.90;;;;;;;1.11;62.97;97713.23;102669;1321;99283;-71
2021/12/05 04:37:14;;;;;;;19.50;8.00;;;;;;;1.14;63.03;97713.09;102582;1321;99237;-71
2021/12/05 04:39:42;;;;;;;21.30;8.60;;;;;;;1.17;63.09;97715.66;102619;1319;114819;-71
2021/12/05 04:42:09;;;;;;;20.50;8.70;;;;;;;1.17;63.37;97714.98;102715;1321;96801;-70
2021/12/05 04:44:37;;;;;;;21.40;8.30;;;;;;;1.17;63.33;97717.21;102704;1321;107382;-70
2021/12/05 04:47:05;;;;;;;21.70;8.40;;;;;;;1.17;63.52;97714.97;102680;1320;99977;-70
2021/12/05 04:49:33;;;;;;;19.90;8.20;;;;;;;1.19;63.53;97711.91;102740;1321;99227;-71
2021/12/05 04:52:06;;;;;;;20.80;8.50;;;;;;;1.22;63.90;97715.40;102764;1321;113367;-70
2021/12/05 04:54:39;;;;;;;23.80;9.50;;;;;;;1.20;63.90;97709.40;102709;1321;98064;-71
2021/12/05 04:57:09;;;;;;;21.50;8.30;;;;;;;1.20;63.99;97705.41;102739;1320;107842;-70
2021/12/05 04:59:43;;;;;;;23.20;8.60;;;;;;;1.20;64.00;97707.67;102733;1319;99359;-70
2021/12/05 05:02:12;;;;;;;24.40;9.50;;;;;;;1.20;64.17;97713.44;102837;1321;99239;-71
2021/12/05 05:04:49;;;;;;;23.50;9.00;;;;;;;1.20;64.33;97714.81;102874;1319;112965;-70
2021/12/05 05:07:26;;;;;;;22.80;9.70;;;;;;;1.18;64.51;97718.55;102858;1321;99688;-72
2021/12/05 05:10:01;;;;;;;23.00;9.80;;;;;;;1.17;64.31;97718.10;102875;1321;107762;-71
2021/12/05 05:12:29;;;;;;;24.60;11.20;;;;;;;1.18;64.41;97717.20;102819;1319;99245;-68
2021/12/05 05:14:57;;;;;;;22.90;9.10;;;;;;;1.18;64.57;97721.42;102836;1323;99355;-70
2021/12/05 05:17:26;;;;;;;24.40;10.10;;;;;;;1.19;64.72;97717.84;102881;1319;112900;-69
2021/12/05 05:20:01;;;;;;;24.10;10.40;;;;;;;1.20;64.61;97716.58;103018;1318;99260;-70
2021/12/05 05:22:43;;;;;;;24.60;10.10;;;;;;;1.21;64.57;97719.11;102882;1318;107846;-70
2021/12/05 05:50:00;;;;;;;24.30;9.40;;;;;;;1.29;65.16;97748.19;102952;1320;107978;-70
2021/12/05 05:52:32;;;;;;;25.80;11.30;;;;;;;1.30;65.26;97755.98;102804;1321;99397;-69
2021/12/05 05:55:03;;;;;;;25.70;11.00;;;;;;;1.28;65.27;97758.55;102956;1319;99246;-70
2021/12/05 05:57:41;;;;;;;28.20;12.50;;;;;;;1.27;65.45;97758.76;103022;1319;113052;-70
2021/12/05 06:00:31;;;;;;;24.90;11.70;;;;;;;1.22;65.79;97758.52;102935;1318;98001;-71
2021/12/05 06:03:22;;;;;;;25.90;10.90;;;;;;;1.18;65.87;97758.95;102959;1319;107872;-71
2021/12/05 06:06:08;;;;;;;26.40;12.30;;;;;;;1.15;66.02;97757.32;102925;1321;99381;-69
2021/12/05 06:08:40;;;;;;;27.80;12.70;;;;;;;1.10;65.73;97761.08;102921;1321;99259;-69
2021/12/05 06:11:14;;;;;;;27.00;11.30;;;;;;;1.10;65.92;97759.71;102952;1319;113510;-69
2021/12/05 06:13:45;;;;;;;24.70;11.10;;;;;;;1.09;66.08;97757.52;103001;1318;99109;-69
2021/12/05 06:16:17;;;;;;;27.90;13.40;;;;;;;1.07;66.23;97764.75;102884;1322;108960;-70
2021/12/05 06:18:48;;;;;;;26.80;13.00;;;;;;;1.06;66.08;97760.10;102822;1321;99343;-70
2021/12/05 06:21:18;;;;;;;26.30;11.70;;;;;;;1.08;66.13;97760.54;102831;1321;99963;-71
2021/12/05 06:23:46;;;;;;;24.20;11.30;;;;;;;1.10;66.14;97763.88;102940;1318;112620;-70
2021/12/05 06:26:22;;;;;;;25.20;12.30;;;;;;;1.12;66.19;97759.59;102884;1321;96608;-69
2021/12/05 06:29:15;;;;;;;25.80;12.80;;;;;;;1.14;66.19;97758.98;102899;1319;106202;-69
2021/12/05 06:32:31;;;;;;;26.00;11.70;;;;;;;1.15;66.27;97759.77;102954;1318;97869;-68
2021/12/05 06:37:47;;;;;;;26.20;12.70;;;;;;;1.18;66.41;97768.19;102918;1319;111621;-70
2021/12/05 06:40:34;;;;;;;24.90;11.60;;;;;;;1.19;66.56;97770.74;102829;1319;98515;-68
2021/12/05 06:45:56;;;;;;;28.30;13.10;;;;;;;1.19;66.72;97769.20;102791;1318;107894;-70
2021/12/05 06:46:01;;;;;;;26.80;12.00;;;;;;;1.16;66.64;97769.83;102778;1319;99974;-70
2021/12/05 06:48:33;;;;;;;29.30;12.60;;;;;;;1.15;66.75;97773.58;102573;1324;99239;-70
2021/12/05 06:51:04;;;;;;;27.10;12.30;;;;;;;1.14;66.76;97774.52;102692;1319;112940;-70
2021/12/05 06:53:32;;;;;;;26.50;12.20;;;;;;;1.15;66.71;97779.00;102815;1318;99320;-71
2021/12/05 06:56:00;;;;;;;27.40;12.40;;;;;;;1.14;66.66;97780.77;102875;1319;108021;-70
2021/12/05 06:58:31;;;;;;;26.70;13.00;;;;;;;1.14;66.91;97783.42;102873;1318;99458;-70
2021/12/05 07:01:05;;;;;;;29.60;13.40;;;;;;;1.11;66.70;97784.23;102851;1318;99363;-69
2021/12/05 07:03:37;;;;;;;28.40;12.60;;;;;;;1.11;66.74;97788.28;102860;1318;112810;-70
2021/12/05 07:08:39;;;;;;;27.70;13.10;;;;;;;1.09;66.90;97790.69;102819;1318;107902;-69
2021/12/05 07:22:01;;;;;;;28.30;13.10;;;;;;;1.11;67.05;97802.95;102737;1321;108320;-69
2021/12/05 07:40:42;;;;;;;24.60;10.90;;;;;;;1.07;67.49;97810.70;102583;1320;98409;-70
2021/12/05 07:43:15;;;;;;;24.40;11.30;;;;;;;1.06;67.70;97809.16;102803;1319;111348;-70
2021/12/05 07:45:56;;;;;;;24.80;11.20;;;;;;;1.05;67.60;97807.81;102760;1320;99256;-72
2021/12/05 07:48:29;;;;;;;21.70;10.60;;;;;;;1.06;67.52;97808.13;102780;1318;107870;-71
2021/12/05 07:51:25;;;;;;;23.00;10.10;;;;;;;1.08;67.80;97809.23;102689;1318;99322;-70
2021/12/05 07:56:39;;;;;;;25.50;11.20;;;;;;;1.11;67.95;97810.48;102863;1319;112955;-71
2021/12/05 07:59:21;;;;;;;24.60;12.30;;;;;;;1.14;68.00;97815.70;102806;1318;99242;-72
2021/12/05 08:15:59;;;;;;;27.10;12.70;;;;;;;1.21;68.01;97826.52;102789;1318;107884;-73
2021/12/05 08:18:30;;;;;;;29.10;14.50;;;;;;;1.26;68.02;97826.94;102694;1321;96678;-73
2021/12/05 08:21:05;;;;;;;29.50;13.80;;;;;;;1.28;68.22;97826.30;102709;1321;97418;-71
2021/12/05 08:23:38;;;;;;;27.20;13.50;;;;;;;1.30;68.26;97831.64;102834;1319;111858;-71
2021/12/05 08:26:18;;;;;;;28.00;13.80;;;;;;;1.28;68.44;97829.61;102911;1319;99269;-70
2021/12/05 09:22:33;;;;;;;27.20;12.70;;;;;;;1.53;69.06;97834.06;102761;1325;96555;-69
2021/12/05 09:28:31;;;;;;;29.00;14.10;;;;;;;1.66;69.27;97834.17;102904;1320;99340;-73
2021/12/05 10:07:25;;;;;;;23.30;12.20;;;;;;;1.68;70.37;97808.23;102812;1324;108653;-69
2021/12/05 10:15:47;;;;;;;26.10;12.10;;;;;;;1.87;70.32;97806.42;102870;1318;113715;-70
2021/12/05 10:36:10;;;;;;;26.90;13.10;;;;;;;2.10;72.08;97792.88;102666;1322;108790;-69
2021/12/05 10:38:11;;;;;;;26.00;11.80;;;;;;;2.13;71.56;97795.34;102598;1321;99446;-69
2021/12/05 10:40:54;;;;;;;24.20;11.60;;;;;;;2.18;71.61;97792.92;102753;1320;99294;-70
2021/12/05 10:43:28;;;;;;;23.40;10.60;;;;;;;2.26;71.76;97794.38;102722;1325;112951;-70
2021/12/05 10:46:07;;;;;;;24.90;12.10;;;;;;;2.26;72.18;97792.48;102840;1319;97858;-69
2021/12/05 10:49:05;;;;;;;24.90;11.80;;;;;;;2.24;71.90;97789.77;102553;1324;107895;-71
2021/12/05 10:51:41;;;;;;;24.60;11.50;;;;;;;2.27;71.74;97782.29;102765;1321;99032;-69
2021/12/05 10:54:15;;;;;;;23.10;10.60;;;;;;;2.35;71.96;97780.23;102676;1318;188787;-70
2021/12/05 10:56:49;;;;;;;22.10;11.00;;;;;;;2.35;72.23;97777.23;102790;1318;113495;-70
2021/12/05 10:59:38;;;;;;;24.30;10.70;;;;;;;2.34;72.31;97776.61;102957;1322;99244;-69
2021/12/05 11:02:13;;;;;;;24.50;11.80;;;;;;;2.36;72.34;97776.50;102740;1324;107858;-70
2021/12/05 11:04:51;;;;;;;24.10;11.40;;;;;;;2.40;71.97;97773.50;102908;1321;99310;-70
2021/12/05 11:07:23;;;;;;;22.50;11.10;;;;;;;2.43;72.39;97772.59;103010;1322;99254;-72
2021/12/05 11:09:59;;;;;;;21.10;10.20;;;;;;;2.45;71.99;97770.85;102783;1319;112846;-70
2021/12/05 11:12:33;;;;;;;20.90;9.60;;;;;;;2.52;72.31;97773.29;102754;1324;96657;-70
2021/12/05 11:15:14;;;;;;;23.20;11.60;;;;;;;2.56;72.19;97770.93;102865;1319;107817;-71
2021/12/05 11:17:47;;;;;;;23.70;12.40;;;;;;;2.56;72.33;97773.20;102682;1318;97507;-70
2021/12/05 11:20:29;;;;;;;23.50;11.40;;;;;;;2.59;72.48;97775.30;102783;1321;99283;-70
2021/12/05 11:22:57;;;;;;;24.30;11.60;;;;;;;2.64;72.07;97779.91;102824;1320;113835;-70
2021/12/05 11:25:31;;;;;;;23.00;11.90;;;;;;;2.65;71.92;97772.27;102711;1325;99399;-69
2021/12/05 11:28:04;;;;;;;23.10;11.50;;;;;;;2.70;72.30;97770.10;102728;1321;108046;-69
2021/12/05 11:30:37;;;;;;;24.60;11.70;;;;;;;2.73;72.06;97768.52;102672;1324;98063;-70
2021/12/05 11:33:18;;;;;;;25.70;12.00;;;;;;;2.71;71.99;97779.65;102634;1321;99568;-70
2021/12/05 11:35:54;;;;;;;22.40;10.00;;;;;;;2.65;72.04;97782.65;102805;1320;111856;-70
2021/12/05 11:38:29;;;;;;;26.60;12.80;;;;;;;2.64;72.42;97789.02;102888;1323;98976;-71
2021/12/05 11:41:11;;;;;;;26.30;12.90;;;;;;;2.63;72.04;97787.67;102772;1320;107091;-71
2021/12/05 11:43:42;;;;;;;25.40;12.40;;;;;;;2.63;72.00;97786.27;102840;1321;99250;-70
2021/12/05 11:46:28;;;;;;;26.20;12.70;;;;;;;2.64;71.92;97786.22;102755;1318;99174;-70
2021/12/05 11:49:06;;;;;;;26.50;11.90;;;;;;;2.70;72.20;97800.20;102707;1324;112427;-70
2021/12/05 11:51:44;;;;;;;25.50;12.20;;;;;;;2.74;72.27;97807.33;102680;1319;99370;-70
2021/12/05 11:54:31;;;;;;;24.60;12.60;;;;;;;2.72;72.12;97812.49;102566;1325;107899;-71
2021/12/05 11:57:24;;;;;;;20.60;10.80;;;;;;;2.71;71.94;97814.33;102655;1319;99417;-70
2021/12/05 12:00:00;;;;;;;25.10;12.80;;;;;;;2.73;72.24;97808.39;102661;1318;99149;-71
2021/12/05 12:02:36;;;;;;;27.00;13.90;;;;;;;2.80;71.92;97809.06;102611;1322;112399;-71
2021/12/05 12:05:07;;;;;;;26.50;13.20;;;;;;;2.82;71.80;97811.71;102576;1321;99335;-71
2021/12/05 12:07:47;;;;;;;42.50;22.30;;;;;;;2.83;72.19;97805.86;102637;1320;107829;-70
2021/12/05 12:10:25;;;;;;;31.30;16.80;;;;;;;2.87;72.30;97797.57;102742;1323;97808;-70
2021/12/05 12:12:58;;;;;;;30.00;15.30;;;;;;;2.92;72.21;97810.21;102728;1320;99349;-69
2021/12/05 12:15:29;;;;;;;31.40;16.40;;;;;;;2.94;71.98;97813.94;102823;1324;112866;-69
2021/12/05 12:18:13;;;;;;;31.00;15.50;;;;;;;2.97;72.16;97817.45;102568;1320;99987;-70
2021/12/05 12:20:46;;;;;;;30.10;15.30;;;;;;;3.00;72.06;97812.37;102551;1323;105647;-69
2021/12/05 12:23:18;;;;;;;25.60;12.90;;;;;;;3.02;72.04;97808.27;102739;1322;96634;-70
2021/12/05 12:25:54;;;;;;;30.30;14.40;;;;;;;3.03;71.92;97812.05;102684;1324;98988;-71
2021/12/05 12:28:23;;;;;;;29.00;14.00;;;;;;;3.06;72.08;97821.30;102551;1320;114392;-70
2021/12/05 12:31:17;;;;;;;28.00;12.90;;;;;;;3.09;72.06;97825.82;102837;1319;99250;-69
2021/12/05 12:33:56;;;;;;;25.80;12.80;;;;;;;3.12;72.07;97824.60;102709;1320;107765;-69
2021/12/05 12:36:46;;;;;;;24.60;11.30;;;;;;;3.16;71.96;97824.90;102576;1324;99526;-70
2021/12/05 12:39:16;;;;;;;25.30;13.80;;;;;;;3.16;71.97;97825.59;102466;1319;99187;-69
2021/12/05 12:42:13;;;;;;;23.60;11.90;;;;;;;3.08;71.95;97839.00;102410;1316;112624;-69
2021/12/05 12:45:20;;;;;;;23.60;10.80;;;;;;;3.04;71.76;97838.23;102709;1324;99332;-70
2021/12/05 12:47:58;;;;;;;24.80;13.00;;;;;;;2.99;71.66;97832.38;102577;1324;107680;-72
2021/12/05 12:50:52;;;;;;;25.40;12.80;;;;;;;2.98;71.66;97832.65;102755;1324;99212;-71
2021/12/05 12:53:29;;;;;;;25.20;11.70;;;;;;;2.98;71.84;97835.10;102605;1320;99327;-70
2021/12/05 12:56:06;;;;;;;24.80;12.70;;;;;;;2.96;71.79;97834.33;102545;1319;112919;-70
2021/12/05 12:58:39;;;;;;;26.50;13.30;;;;;;;2.96;71.82;97840.13;102595;1326;99267;-71
2021/12/05 22:11:11;;;;;;;50.20;25.00;;;;;;;1.63;72.93;98046.52;102839;1321;111511;-74
2021/12/05 22:13:41;;;;;;;49.50;25.80;;;;;;;1.65;72.73;98051.31;102872;1316;99317;-77
2021/12/05 22:16:11;;;;;;;48.40;25.30;;;;;;;1.64;72.85;98049.05;102710;1319;107877;-77
2021/12/05 22:18:44;;;;;;;49.80;26.20;;;;;;;1.66;72.90;98043.38;102828;1319;97337;-78
2021/12/05 22:21:18;;;;;;;50.80;26.00;;;;;;;1.69;72.93;98043.05;102741;1318;99342;-76
2021/12/05 22:23:56;;;;;;;48.50;25.10;;;;;;;1.66;72.70;98043.73;102762;1316;112845;-75
2021/12/05 22:26:27;;;;;;;51.00;27.30;;;;;;;1.57;72.72;98045.77;102850;1317;99358;-76
2021/12/05 22:28:59;;;;;;;47.40;25.20;;;;;;;1.49;72.89;98036.06;102856;1319;108284;-75
2021/12/05 22:31:27;;;;;;;41.60;20.70;;;;;;;1.46;72.73;98025.52;102903;1318;99367;-77
2021/12/05 22:33:55;;;;;;;45.70;25.30;;;;;;;1.44;72.85;98029.14;102865;1318;96548;-76
2021/12/05 22:36:25;;;;;;;44.40;23.20;;;;;;;1.41;72.99;98035.62;102912;1317;112835;-76
2021/12/05 22:38:52;;;;;;;48.20;25.70;;;;;;;1.36;73.06;98034.27;102876;1318;99541;-76
2021/12/05 22:41:25;;;;;;;46.70;25.00;;;;;;;1.34;73.15;98034.56;102794;1319;107988;-78
2021/12/05 22:43:55;;;;;;;47.70;24.50;;;;;;;1.32;73.35;98042.19;102887;1318;99288;-78
2021/12/05 22:46:23;;;;;;;50.90;26.30;;;;;;;1.27;73.56;98038.57;102772;1319;99304;-76
2021/12/05 22:48:51;;;;;;;54.70;29.50;;;;;;;1.24;73.51;98037.88;102923;1316;112918;-76
2021/12/05 22:51:24;;;;;;;53.90;29.40;;;;;;;1.20;73.70;98040.14;102894;1318;97944;-75
2021/12/05 22:53:54;;;;;;;49.50;27.90;;;;;;;1.17;73.70;98042.73;102838;1318;107967;-75
2021/12/05 22:56:28;;;;;;;58.80;32.00;;;;;;;1.17;73.69;98041.85;102876;1317;99236;-75
2021/12/05 22:58:56;;;;;;;55.10;31.90;;;;;;;1.15;73.56;98037.77;102903;1318;99723;-75
2021/12/05 23:01:27;;;;;;;59.90;32.90;;;;;;;1.16;73.59;98043.13;102811;1319;112867;-75
2021/12/05 23:04:10;;;;;;;62.80;34.70;;;;;;;1.20;73.70;98044.70;102971;1316;99311;-74
2021/12/05 23:06:39;;;;;;;57.70;31.70;;;;;;;1.26;73.63;98045.80;102876;1319;107930;-77
2021/12/05 23:09:14;;;;;;;54.70;30.40;;;;;;;1.26;73.59;98052.27;102848;1319;99226;-75
2021/12/05 23:11:43;;;;;;;58.80;31.40;;;;;;;1.27;73.85;98048.87;102767;1319;96689;-74
2021/12/05 23:14:11;;;;;;;54.30;31.50;;;;;;;1.31;73.59;98042.54;102762;1318;112891;-75
2021/12/05 23:16:40;;;;;;;55.90;29.30;;;;;;;1.36;73.87;98044.39;102836;1318;99217;-75
2021/12/05 23:19:12;;;;;;;53.40;29.60;;;;;;;1.41;73.86;98048.19;102855;1318;106321;-75
2021/12/05 23:21:52;;;;;;;51.90;26.30;;;;;;;1.45;73.67;98040.78;102910;1318;99342;-74
2021/12/05 23:24:28;;;;;;;51.60;26.50;;;;;;;1.47;73.51;98030.55;102959;1318;99323;-74
2021/12/05 23:26:58;;;;;;;47.40;26.30;;;;;;;1.50;73.58;98034.09;102762;1318;112574;-73
2021/12/05 23:29:29;;;;;;;45.90;25.50;;;;;;;1.53;73.85;98036.70;102791;1322;99336;-74
2021/12/05 23:32:06;;;;;;;45.00;24.10;;;;;;;1.56;73.71;98029.05;102908;1319;107859;-75
2021/12/05 23:34:35;;;;;;;48.70;25.10;;;;;;;1.55;73.85;98019.31;102900;1323;99286;-75
2021/12/05 23:37:05;;;;;;;49.00;26.10;;;;;;;1.52;73.52;98026.83;102930;1319;99244;-75
2021/12/05 23:39:36;;;;;;;43.00;23.30;;;;;;;1.48;73.70;98037.48;102930;1322;112866;-75
2021/12/05 23:42:06;;;;;;;48.00;25.00;;;;;;;1.50;74.02;98029.38;102920;1319;99223;-74
2021/12/05 23:44:34;;;;;;;44.70;22.50;;;;;;;1.54;73.99;98025.30;102812;1319;107838;-74
2021/12/05 23:47:02;;;;;;;45.90;24.60;;;;;;;1.56;73.91;98028.36;102882;1319;96638;-74
2021/12/05 23:49:32;;;;;;;42.50;23.40;;;;;;;1.53;73.61;98026.92;102952;1317;96690;-74
2021/12/05 23:52:01;;;;;;;45.40;24.40;;;;;;;1.53;73.78;98037.40;103003;1322;112646;-74
2021/12/05 23:54:32;;;;;;;45.80;25.10;;;;;;;1.51;73.69;98034.76;102928;1318;99258;-74
2021/12/05 23:57:02;;;;;;;45.40;24.40;;;;;;;1.53;73.86;98035.70;102859;1319;107991;-76
2021/12/05 23:59:30;;;;;;;42.30;23.00;;;;;;;1.56;73.80;98042.67;102927;1318;99455;-77
